CSK3 weather

CLOSED Montreal / Mascouche Airport
Montréal, Quebec, Canada

Public forecast

Using degrees Celsius for public forecast. Weather courtesy of forecast.io.

METAR (pilot weather report)

Closest report is Montréal / Saint-Hubert Airport, 14.3 nm (26.4 km) SSE. Retrieved 2019/07/18 00:00 UTC (33 minutes ago):

CYHU 180000Z AUTO 05007KT 9SM CLR 23/16 A2989 RMK SLP123 DENSITY ALT 1000FT

TAF (pilot weather forecast)

Forecast is more than 12 hours old.

Closest forecast is Montréal / Saint-Hubert Airport, 14.3 nm (26.4 km) SSE. Retrieved 2019/07/17 00:42 UTC (24 hours ago):

TAF CYHU 172338Z 1800/1824 03010KT P6SM FEW050 SCT250 FM180400 04008KT P6SM SKC BECMG 1815/1817 08010KT RMK FCST BASED ON AUTO OBS. NXT FCST BY 180600Z